createdAt,value
2018-09-04T00:01:14.134Z,101144.66
2018-09-04T00:03:43.244Z,101134.11
2018-09-04T00:06:12.680Z,101132.30
2018-09-04T00:08:41.933Z,101132.52
2018-09-04T00:11:11.091Z,101129.68
2018-09-04T00:13:40.368Z,101133.84
2018-09-04T00:16:10.617Z,101135.55
2018-09-04T00:18:40.722Z,101137.98
2018-09-04T00:21:09.822Z,101136.93
2018-09-04T00:23:39.063Z,101140.83
2018-09-04T00:26:08.232Z,101137.43
2018-09-04T00:28:37.402Z,101137.27
2018-09-04T00:31:06.579Z,101131.45
2018-09-04T00:33:35.819Z,101127.50
2018-09-04T00:36:04.959Z,101119.84
2018-09-04T00:38:34.091Z,101121.33
2018-09-04T00:41:03.277Z,101118.64
2018-09-04T00:43:32.387Z,101119.96
2018-09-04T00:46:01.570Z,101113.97
2018-09-04T00:48:30.775Z,101114.73
2018-09-04T00:50:59.944Z,101107.03
2018-09-04T00:53:29.200Z,101108.95
2018-09-04T00:55:58.406Z,101106.56
2018-09-04T00:58:27.547Z,101104.53
2018-09-04T01:00:56.731Z,101108.29
2018-09-04T01:03:25.859Z,101109.56
2018-09-04T01:05:55.067Z,101111.23
2018-09-04T01:08:24.250Z,101114.78
2018-09-04T01:10:53.500Z,101114.80
2018-09-04T01:13:22.649Z,101116.22
2018-09-04T01:15:51.820Z,101115.70
2018-09-04T01:18:20.975Z,101111.05
2018-09-04T01:20:50.183Z,101114.95
2018-09-04T01:23:19.299Z,101110.28
2018-09-04T01:25:48.653Z,101114.30
2018-09-04T01:28:17.883Z,101112.12
2018-09-04T01:30:47.026Z,101119.31
2018-09-04T01:33:16.172Z,101116.13
2018-09-04T01:35:45.298Z,101114.64
2018-09-04T01:38:14.427Z,101117.02
2018-09-04T01:40:43.606Z,101123.16
2018-09-04T01:43:12.745Z,101119.66
2018-09-04T01:45:41.959Z,101122.00
2018-09-04T01:48:11.151Z,101121.73
2018-09-04T01:50:40.307Z,101121.53
2018-09-04T01:53:09.548Z,101125.80
2018-09-04T01:55:38.615Z,101127.81
2018-09-04T01:58:07.869Z,101128.37
2018-09-04T02:00:37.059Z,101124.91
2018-09-04T02:03:06.272Z,101125.99
2018-09-04T02:05:35.446Z,101125.13
2018-09-04T02:08:04.658Z,101123.16
2018-09-04T02:10:33.798Z,101122.64
2018-09-04T02:13:02.931Z,101124.32
2018-09-04T02:15:32.115Z,101119.96
2018-09-04T02:18:01.357Z,101120.58
2018-09-04T02:20:30.469Z,101119.66
2018-09-04T02:22:59.673Z,101118.59
2018-09-04T02:25:28.925Z,101119.50
2018-09-04T02:27:58.179Z,101121.39
2018-09-04T02:30:27.423Z,101123.91
2018-09-04T02:32:56.824Z,101121.89
2018-09-04T02:35:25.922Z,101119.81
2018-09-04T02:37:55.164Z,101116.27
2018-09-04T02:40:24.483Z,101112.27
2018-09-04T02:46:03.611Z,101112.47
2018-09-04T02:48:32.774Z,101110.30
2018-09-04T02:51:02.076Z,101109.38
2018-09-04T02:53:31.304Z,101109.52
2018-09-04T02:56:00.602Z,101115.20
2018-09-04T02:58:29.813Z,101111.14
2018-09-04T03:00:59.055Z,101110.78
2018-09-04T03:03:28.292Z,101111.80
2018-09-04T03:05:57.500Z,101106.43
2018-09-04T03:08:26.763Z,101103.12
2018-09-04T03:10:56.027Z,101102.67
2018-09-04T03:13:25.139Z,101098.62
2018-09-04T03:15:54.391Z,101098.02
2018-09-04T03:18:23.579Z,101097.81
2018-09-04T03:20:52.841Z,101106.52
2018-09-04T03:23:21.980Z,101107.64
2018-09-04T03:25:51.157Z,101105.51
2018-09-04T03:28:20.392Z,101105.57
2018-09-04T03:30:49.652Z,101098.06
2018-09-04T03:33:18.871Z,101092.02
2018-09-04T03:35:48.075Z,101091.98
2018-09-04T03:38:17.320Z,101090.00
2018-09-04T03:40:46.469Z,101093.60
2018-09-04T03:43:15.691Z,101095.78
2018-09-04T03:45:44.855Z,101100.23
2018-09-04T03:48:14.036Z,101097.09
2018-09-04T03:50:43.211Z,101101.87
2018-09-04T03:53:12.475Z,101103.42
2018-09-04T03:55:41.604Z,101108.27
2018-09-04T03:58:10.742Z,101100.41
2018-09-04T04:00:39.924Z,101105.83
2018-09-04T04:03:09.107Z,101101.87
2018-09-04T04:05:38.406Z,101098.63
2018-09-04T04:08:07.585Z,101104.21
2018-09-04T04:10:36.700Z,101103.30
2018-09-04T04:13:05.949Z,101105.53
2018-09-04T04:15:35.431Z,101105.33
2018-09-04T04:18:04.947Z,101108.91
2018-09-04T04:20:34.099Z,101109.48
2018-09-04T04:23:03.353Z,101114.30
2018-09-04T04:25:32.487Z,101112.56
2018-09-04T04:28:01.720Z,101112.97
2018-09-04T04:30:30.928Z,101110.42
2018-09-04T04:33:00.147Z,101111.30
2018-09-04T04:35:29.240Z,101119.84
2018-09-04T04:37:58.463Z,101121.95
2018-09-04T04:40:27.708Z,101126.02
2018-09-04T04:42:57.061Z,101129.91
2018-09-04T04:45:26.400Z,101125.66
2018-09-04T04:47:55.665Z,101128.41
2018-09-04T04:50:24.792Z,101129.27
2018-09-04T04:52:53.959Z,101136.77
2018-09-04T04:55:23.160Z,101137.52
2018-09-04T04:57:52.427Z,101133.04
2018-09-04T05:00:21.707Z,101135.58
2018-09-04T05:02:50.770Z,101137.60
2018-09-04T05:05:19.916Z,101135.66
2018-09-04T05:07:51.715Z,101136.36
2018-09-04T05:10:20.894Z,101141.41
2018-09-04T05:12:50.408Z,101139.47
2018-09-04T05:15:20.304Z,101137.70
2018-09-04T05:17:49.435Z,101131.57
2018-09-04T05:20:27.439Z,101132.52
2018-09-04T05:22:56.592Z,101131.11
2018-09-04T05:25:25.700Z,101133.05
2018-09-04T05:27:54.855Z,101141.70
2018-09-04T05:30:24.000Z,101144.48
2018-09-04T05:33:00.518Z,101143.63
2018-09-04T05:35:33.902Z,101150.22
2018-09-04T05:38:03.007Z,101155.16
2018-09-04T05:40:32.108Z,101147.37
2018-09-04T05:43:03.728Z,101146.56
2018-09-04T05:45:33.637Z,101151.64
2018-09-04T05:48:05.078Z,101161.53
2018-09-04T05:50:34.259Z,101156.26
2018-09-04T05:53:03.388Z,101164.36
2018-09-04T05:55:32.537Z,101163.89
2018-09-04T05:58:02.192Z,101160.30
2018-09-04T06:00:36.292Z,101160.54
2018-09-04T06:03:05.403Z,101167.71
2018-09-04T06:05:34.558Z,101162.60
2018-09-04T06:08:03.728Z,101166.98
2018-09-04T06:10:32.946Z,101160.83
2018-09-04T06:13:02.113Z,101160.19
2018-09-04T06:15:31.287Z,101170.95
2018-09-04T06:18:00.460Z,101170.47
2018-09-04T06:20:29.787Z,101170.48
2018-09-04T06:22:59.039Z,101173.70
2018-09-04T06:25:28.209Z,101168.14
2018-09-04T06:27:57.351Z,101169.14
2018-09-04T06:30:26.579Z,101166.71
2018-09-04T06:32:55.757Z,101171.70
2018-09-04T06:35:24.960Z,101165.00
2018-09-04T06:37:54.094Z,101163.58
2018-09-04T06:40:23.291Z,101170.13
2018-09-04T06:42:52.401Z,101169.31
2018-09-04T06:45:21.904Z,101178.02
2018-09-04T06:47:51.145Z,101174.14
2018-09-04T06:50:20.275Z,101177.81
2018-09-04T06:52:49.455Z,101179.74
2018-09-04T06:55:18.632Z,101173.44
2018-09-04T06:57:47.909Z,101176.25
2018-09-04T07:00:17.124Z,101181.25
2018-09-04T07:02:46.353Z,101180.34
2018-09-04T07:05:15.480Z,101190.83
2018-09-04T07:07:44.642Z,101191.68
2018-09-04T07:10:14.269Z,101182.41
2018-09-04T07:12:43.519Z,101180.02
2018-09-04T07:15:14.374Z,101177.55
2018-09-04T07:17:43.497Z,101180.81
2018-09-04T07:20:12.667Z,101174.17
2018-09-04T07:22:41.851Z,101180.84
2018-09-04T07:25:10.982Z,101173.02
2018-09-04T07:27:40.127Z,101172.60
2018-09-04T07:30:09.996Z,101171.60
2018-09-04T07:32:39.222Z,101169.98
2018-09-04T07:35:08.389Z,101172.27
2018-09-04T07:37:37.512Z,101168.36
2018-09-04T07:40:06.758Z,101172.82
2018-09-04T07:42:35.924Z,101173.30
2018-09-04T07:45:05.548Z,101180.65
2018-09-04T07:47:34.743Z,101178.98
2018-09-04T07:50:04.039Z,101181.73
2018-09-04T07:52:33.780Z,101182.63
2018-09-04T07:55:03.031Z,101182.05
2018-09-04T07:57:32.197Z,101184.07
2018-09-04T08:00:01.361Z,101174.35
2018-09-04T08:02:30.508Z,101184.10
2018-09-04T08:04:59.638Z,101177.98
2018-09-04T08:07:28.827Z,101173.14
2018-09-04T08:09:58.011Z,101181.05
2018-09-04T08:12:27.123Z,101180.94
2018-09-04T08:14:56.295Z,101186.22
2018-09-04T08:17:25.471Z,101185.30
2018-09-04T08:19:54.640Z,101199.32
2018-09-04T08:22:23.823Z,101193.13
2018-09-04T08:24:52.961Z,101194.41
2018-09-04T08:27:22.053Z,101203.48
2018-09-04T08:29:51.276Z,101203.45
2018-09-04T08:32:20.522Z,101199.77
2018-09-04T08:34:49.695Z,101203.64
2018-09-04T08:37:18.957Z,101199.09
2018-09-04T08:39:48.143Z,101202.86
2018-09-04T08:42:17.362Z,101198.16
2018-09-04T08:44:46.613Z,101198.19
2018-09-04T08:47:15.848Z,101197.09
2018-09-04T08:49:45.008Z,101194.06
2018-09-04T08:52:14.191Z,101195.92
2018-09-04T08:54:43.474Z,101193.16
2018-09-04T08:57:12.657Z,101188.75
2018-09-04T08:59:41.892Z,101181.23
2018-09-04T09:02:11.556Z,101179.70
2018-09-04T09:04:40.694Z,101173.88
2018-09-04T09:07:09.876Z,101186.14
2018-09-04T09:09:39.016Z,101187.64
2018-09-04T09:12:08.239Z,101176.28
2018-09-04T09:14:37.359Z,101167.66
2018-09-04T09:17:06.593Z,101163.25
2018-09-04T09:19:35.851Z,101164.86
2018-09-04T09:22:05.192Z,101170.75
2018-09-04T09:24:34.287Z,101173.72
2018-09-04T09:27:03.507Z,101174.27
2018-09-04T09:29:32.627Z,101170.05
2018-09-04T09:32:01.864Z,101171.70
2018-09-04T09:34:31.024Z,101175.81
2018-09-04T09:37:00.189Z,101185.97
2018-09-04T09:39:29.321Z,101182.93
2018-09-04T09:41:58.444Z,101178.64
2018-09-04T09:44:28.701Z,101177.17
2018-09-04T09:47:01.763Z,101178.22
2018-09-04T09:49:32.366Z,101178.58
2018-09-04T09:52:01.503Z,101170.14
2018-09-04T09:54:30.616Z,101169.85
2018-09-04T09:56:59.768Z,101170.64
2018-09-04T09:59:29.077Z,101176.77
2018-09-04T10:02:03.495Z,101181.46
2018-09-04T10:04:32.648Z,101177.97
2018-09-04T10:07:01.760Z,101171.04
2018-09-04T10:09:31.005Z,101169.32
2018-09-04T10:12:00.116Z,101169.98
2018-09-04T10:14:29.775Z,101171.56
2018-09-04T10:16:58.895Z,101170.08
2018-09-04T10:19:28.169Z,101170.92
2018-09-04T10:21:57.364Z,101166.12
2018-09-04T10:24:26.551Z,101165.61
2018-09-04T10:26:55.715Z,101160.42
2018-09-04T10:29:25.069Z,101162.36
2018-09-04T10:31:54.204Z,101161.72
2018-09-04T10:34:23.341Z,101158.51
2018-09-04T10:36:52.511Z,101156.28
2018-09-04T10:39:26.907Z,101157.83
2018-09-04T10:41:56.032Z,101150.44
2018-09-04T10:44:25.303Z,101143.14
2018-09-04T10:46:54.412Z,101140.43
2018-09-04T10:49:23.628Z,101139.27
2018-09-04T10:51:52.763Z,101138.63
2018-09-04T10:54:21.895Z,101131.91
2018-09-04T10:56:51.013Z,101141.14
2018-09-04T10:59:20.229Z,101142.18
2018-09-04T11:01:49.491Z,101131.91
2018-09-04T11:04:18.648Z,101134.77
2018-09-04T11:06:47.773Z,101135.11
2018-09-04T11:09:16.959Z,101131.47
2018-09-04T11:11:46.108Z,101127.17
2018-09-04T11:14:15.327Z,101133.27
2018-09-04T11:16:44.599Z,101133.77
2018-09-04T11:19:13.859Z,101132.34
2018-09-04T11:21:43.019Z,101134.27
2018-09-04T11:24:12.209Z,101139.92
2018-09-04T11:26:41.507Z,101129.98
2018-09-04T11:29:12.568Z,101132.95
2018-09-04T11:31:41.748Z,101137.22
2018-09-04T11:34:10.988Z,101129.90
2018-09-04T11:36:40.455Z,101129.24
2018-09-04T11:39:10.993Z,101135.31
2018-09-04T11:41:40.231Z,101137.63
2018-09-04T11:44:09.348Z,101134.99
2018-09-04T11:46:38.495Z,101140.23
2018-09-04T11:49:07.732Z,101129.53
2018-09-04T11:51:36.904Z,101132.63
2018-09-04T11:54:06.179Z,101128.53
2018-09-04T11:56:40.561Z,101132.63
2018-09-04T11:59:09.843Z,101131.11
2018-09-04T12:01:42.012Z,101127.60
2018-09-04T12:04:11.209Z,101126.17
2018-09-04T12:06:40.520Z,101123.16
2018-09-04T12:09:09.512Z,101124.52
2018-09-04T12:11:38.680Z,101128.39
2018-09-04T12:14:07.795Z,101121.48
2018-09-04T12:16:36.984Z,101116.09
2018-09-04T12:19:06.140Z,101119.58
2018-09-04T12:21:35.272Z,101120.85
2018-09-04T12:24:04.459Z,101121.52
2018-09-04T12:26:33.674Z,101119.54
2018-09-04T12:29:02.801Z,101120.00
2018-09-04T12:31:31.964Z,101122.33
2018-09-04T12:34:01.205Z,101122.14
2018-09-04T12:36:36.979Z,101124.91
2018-09-04T12:39:06.955Z,101126.76
2018-09-04T12:41:36.075Z,101116.10
2018-09-04T12:44:05.324Z,101114.75
2018-09-04T12:46:34.557Z,101109.06
2018-09-04T12:49:03.735Z,101108.60
2018-09-04T12:51:32.907Z,101105.89
2018-09-04T12:54:02.068Z,101105.48
2018-09-04T12:56:31.236Z,101103.80
2018-09-04T12:59:00.409Z,101100.90
2018-09-04T13:01:29.683Z,101101.84
2018-09-04T13:03:58.816Z,101104.94
2018-09-04T13:06:28.117Z,101100.41
2018-09-04T13:08:57.270Z,101106.09
2018-09-04T13:11:26.444Z,101097.11
2018-09-04T13:13:55.704Z,101097.28
2018-09-04T13:16:24.917Z,101091.20
2018-09-04T13:18:54.148Z,101083.65
2018-09-04T13:21:23.902Z,101095.23
2018-09-04T13:23:53.121Z,101090.86
2018-09-04T13:26:22.216Z,101085.31
2018-09-04T13:28:51.456Z,101079.06
2018-09-04T13:31:20.759Z,101091.37
2018-09-04T13:33:49.945Z,101091.59
2018-09-04T13:36:19.216Z,101086.76
2018-09-04T13:38:48.603Z,101091.10
2018-09-04T13:41:17.979Z,101089.71
2018-09-04T13:43:47.230Z,101088.59
2018-09-04T13:46:16.369Z,101090.73
2018-09-04T13:48:45.592Z,101082.13
2018-09-04T13:51:14.731Z,101083.34
2018-09-04T13:53:43.895Z,101073.84
2018-09-04T13:56:13.052Z,101077.23
2018-09-04T13:58:42.273Z,101085.48
2018-09-04T14:01:11.444Z,101083.25
2018-09-04T14:03:40.624Z,101084.25
2018-09-04T14:06:09.806Z,101075.54
2018-09-04T14:08:38.928Z,101072.73
2018-09-04T14:11:08.205Z,101077.53
2018-09-04T14:13:37.304Z,101073.33
2018-09-04T14:16:11.480Z,101077.63
2018-09-04T14:18:40.640Z,101078.30
2018-09-04T14:21:09.803Z,101079.12
2018-09-04T14:23:38.943Z,101075.15
2018-09-04T14:26:08.119Z,101076.84
2018-09-04T14:28:40.975Z,101082.00
2018-09-04T14:31:06.774Z,101075.67
2018-09-04T14:33:35.968Z,101075.15
2018-09-04T14:36:05.193Z,101072.53
2018-09-04T14:38:34.345Z,101078.73
2018-09-04T14:41:04.332Z,101087.87
2018-09-04T14:43:33.498Z,101084.80
2018-09-04T14:46:02.850Z,101088.73
2018-09-04T14:48:32.136Z,101089.23
2018-09-04T14:51:01.382Z,101082.52
2018-09-04T14:53:30.593Z,101084.52
2018-09-04T14:55:59.783Z,101087.86
2018-09-04T14:58:28.951Z,101085.98
2018-09-04T15:00:58.172Z,101088.05
2018-09-04T15:03:27.441Z,101083.87
2018-09-04T15:05:57.174Z,101096.47
2018-09-04T15:08:26.279Z,101095.22
2018-09-04T15:10:55.415Z,101099.71
2018-09-04T15:13:24.649Z,101108.91
2018-09-04T15:15:53.979Z,101114.24
2018-09-04T15:18:23.211Z,101110.83
2018-09-04T15:20:52.321Z,101121.64
2018-09-04T15:23:21.463Z,101130.45
2018-09-04T15:25:50.704Z,101159.17
2018-09-04T15:28:20.008Z,101177.89
2018-09-04T15:30:49.302Z,101174.59
2018-09-04T15:33:18.604Z,101175.75
2018-09-04T15:35:47.827Z,101174.36
2018-09-04T15:38:17.008Z,101174.07
2018-09-04T15:40:46.439Z,101188.89
2018-09-04T15:43:15.660Z,101201.80
2018-09-04T15:45:45.747Z,101210.30
2018-09-04T15:48:15.089Z,101201.69
2018-09-04T15:50:44.295Z,101186.30
2018-09-04T15:53:13.504Z,101190.08
2018-09-04T15:55:42.671Z,101191.00
2018-09-04T15:58:11.846Z,101175.53
2018-09-04T16:00:40.963Z,101176.80
2018-09-04T16:03:10.124Z,101176.22
2018-09-04T16:05:39.309Z,101171.85
2018-09-04T16:08:08.623Z,101167.89
2018-09-04T16:10:37.751Z,101166.38
2018-09-04T16:13:06.991Z,101171.34
2018-09-04T16:15:36.204Z,101166.59
2018-09-04T16:18:05.380Z,101172.30
2018-09-04T16:20:34.491Z,101170.39
2018-09-04T16:23:03.757Z,101175.66
2018-09-04T16:25:32.895Z,101183.71
2018-09-04T16:28:02.059Z,101187.56
2018-09-04T16:30:31.721Z,101183.55
2018-09-04T16:33:00.921Z,101191.20
2018-09-04T16:35:30.211Z,101188.79
2018-09-04T16:38:00.336Z,101189.91
2018-09-04T16:40:29.559Z,101192.19
2018-09-04T16:42:58.723Z,101198.48
2018-09-04T16:45:29.816Z,101195.39
2018-09-04T16:47:59.455Z,101192.75
2018-09-04T16:50:28.859Z,101191.20
2018-09-04T16:52:58.012Z,101196.18
2018-09-04T16:55:27.143Z,101185.03
2018-09-04T16:57:56.607Z,101188.49
2018-09-04T17:00:25.877Z,101192.05
2018-09-04T17:02:55.189Z,101191.29
2018-09-04T17:05:24.432Z,101178.70
2018-09-04T17:07:55.051Z,101172.89
2018-09-04T17:10:24.292Z,101166.79
2018-09-04T17:12:53.530Z,101161.61
2018-09-04T17:15:23.244Z,101163.75
2018-09-04T17:17:52.405Z,101160.66
2018-09-04T17:20:22.018Z,101165.37
2018-09-04T17:22:51.235Z,101171.23
2018-09-04T17:25:20.447Z,101173.15
2018-09-04T17:27:49.920Z,101165.16
2018-09-04T17:30:19.316Z,101162.61
2018-09-04T17:32:48.456Z,101163.64
2018-09-04T17:35:17.700Z,101160.83
2018-09-04T17:37:46.886Z,101158.09
2018-09-04T17:40:16.097Z,101162.91
2018-09-04T17:42:45.501Z,101171.31
2018-09-04T17:45:15.291Z,101179.05
2018-09-04T17:47:44.535Z,101171.95
2018-09-04T17:50:13.687Z,101169.80
2018-09-04T17:52:43.094Z,101175.44
2018-09-04T17:55:12.276Z,101176.20
2018-09-04T17:57:41.443Z,101178.25
2018-09-04T18:00:11.584Z,101172.22
2018-09-04T18:02:40.791Z,101181.66
2018-09-04T18:05:10.075Z,101185.41
2018-09-04T18:07:39.272Z,101182.02
2018-09-04T18:10:08.435Z,101180.70
2018-09-04T18:12:37.596Z,101180.34
2018-09-04T18:15:07.698Z,101183.34
2018-09-04T18:17:36.943Z,101188.52
2018-09-04T18:20:06.579Z,101186.91
2018-09-04T18:22:35.751Z,101186.22
2018-09-04T18:25:05.047Z,101189.87
2018-09-04T18:27:34.353Z,101188.06
2018-09-04T18:30:03.644Z,101192.22
2018-09-04T18:32:33.028Z,101190.38
2018-09-04T18:35:02.264Z,101191.69
2018-09-04T18:37:31.704Z,101202.70
2018-09-04T18:40:01.011Z,101203.33
2018-09-04T18:42:30.306Z,101204.48
2018-09-04T18:44:59.538Z,101202.00
2018-09-04T18:47:35.364Z,101211.17
2018-09-04T18:50:04.703Z,101218.83
2018-09-04T18:52:33.967Z,101224.17
2018-09-04T18:55:03.235Z,101230.61
2018-09-04T18:57:32.484Z,101226.95
2018-09-04T19:00:01.745Z,101222.23
2018-09-04T19:02:31.071Z,101224.87
2018-09-04T19:05:00.296Z,101224.27
2018-09-04T19:07:29.611Z,101216.81
2018-09-04T19:09:59.008Z,101215.95
2018-09-04T19:12:29.885Z,101206.82
2018-09-04T19:14:59.308Z,101210.48
2018-09-04T19:17:29.109Z,101208.70
2018-09-04T19:19:58.440Z,101210.78
2018-09-04T19:22:27.820Z,101213.31
2018-09-04T19:24:57.073Z,101212.30
2018-09-04T19:27:26.398Z,101208.44
2018-09-04T19:29:55.940Z,101215.63
2018-09-04T19:32:25.394Z,101211.28
2018-09-04T19:34:54.524Z,101212.44
2018-09-04T19:37:23.907Z,101213.75
2018-09-04T19:39:53.179Z,101223.55
2018-09-04T19:42:22.348Z,101221.51
2018-09-04T19:44:51.541Z,101223.66
2018-09-04T19:47:20.865Z,101228.86
2018-09-04T19:49:50.223Z,101231.87
2018-09-04T19:52:19.427Z,101233.88
2018-09-04T19:54:48.696Z,101239.22
2018-09-04T19:57:18.008Z,101237.91
2018-09-04T19:59:47.259Z,101231.70
2018-09-04T20:02:16.529Z,101230.22
2018-09-04T20:08:08.160Z,101237.58
2018-09-04T20:10:37.394Z,101237.78
2018-09-04T20:13:06.775Z,101238.70
2018-09-04T20:15:36.067Z,101237.62
2018-09-04T20:18:05.831Z,101239.30
2018-09-04T20:20:35.198Z,101242.04
2018-09-04T20:23:04.448Z,101245.14
2018-09-04T20:25:33.631Z,101245.53
2018-09-04T20:28:02.867Z,101246.95
2018-09-04T20:30:32.073Z,101237.52
2018-09-04T20:33:01.266Z,101241.08
2018-09-04T20:35:31.312Z,101238.73
2018-09-04T20:38:00.601Z,101245.59
2018-09-04T20:40:29.841Z,101239.63
2018-09-04T20:42:59.055Z,101240.29
2018-09-04T20:45:28.732Z,101246.79
2018-09-04T20:47:58.042Z,101247.81
2018-09-04T20:50:27.304Z,101253.05
2018-09-04T20:52:56.463Z,101250.05
2018-09-04T20:55:25.812Z,101251.27
2018-09-04T20:58:11.912Z,101242.41
2018-09-04T21:00:57.963Z,101245.30
2018-09-04T21:03:44.178Z,101247.64
2018-09-04T21:06:30.340Z,101248.14
2018-09-04T21:09:06.465Z,101253.02
2018-09-04T21:11:35.668Z,101254.94
2018-09-04T21:14:04.912Z,101256.16
2018-09-04T21:16:34.212Z,101257.77
2018-09-04T21:19:03.357Z,101259.62
2018-09-04T21:21:32.511Z,101264.85
2018-09-04T21:24:01.803Z,101261.80
2018-09-04T21:26:31.103Z,101252.11
2018-09-04T21:29:00.449Z,101248.94
2018-09-04T21:31:29.682Z,101250.05
2018-09-04T21:33:58.997Z,101247.81
2018-09-04T21:36:28.118Z,101247.25
2018-09-04T21:38:57.349Z,101250.58
2018-09-04T21:41:26.521Z,101248.70
2018-09-04T21:43:55.699Z,101249.06
2018-09-04T21:46:24.881Z,101249.58
2018-09-04T21:48:54.114Z,101244.20
2018-09-04T21:51:23.318Z,101250.44
2018-09-04T21:53:52.591Z,101246.58
2018-09-04T21:56:21.824Z,101252.02
2018-09-04T21:58:51.076Z,101252.57
2018-09-04T22:01:20.339Z,101251.25
2018-09-04T22:03:49.923Z,101254.61
2018-09-04T22:06:19.129Z,101252.73
2018-09-04T22:08:48.279Z,101252.37
2018-09-04T22:11:17.505Z,101251.05
2018-09-04T22:13:46.727Z,101251.97
2018-09-04T22:16:15.909Z,101253.49
2018-09-04T22:18:45.138Z,101258.31
2018-09-04T22:21:14.313Z,101259.72
2018-09-04T22:23:43.622Z,101253.89
2018-09-04T22:26:13.441Z,101257.13
2018-09-04T22:28:42.600Z,101252.38
2018-09-04T22:31:11.879Z,101258.25
2018-09-04T22:33:41.059Z,101250.23
2018-09-04T22:36:10.231Z,101249.73
2018-09-04T22:38:39.420Z,101249.84
2018-09-04T22:41:08.651Z,101242.31
2018-09-04T22:43:38.241Z,101245.25
2018-09-04T22:46:07.844Z,101239.98
2018-09-04T22:48:37.080Z,101236.94
2018-09-04T22:51:11.604Z,101242.88
2018-09-04T22:53:40.811Z,101243.14
2018-09-04T22:56:09.973Z,101241.55
2018-09-04T22:58:39.178Z,101243.95
2018-09-04T23:01:08.383Z,101241.52
2018-09-04T23:03:37.588Z,101241.21
2018-09-04T23:06:07.079Z,101235.84
2018-09-04T23:08:36.324Z,101235.47
2018-09-04T23:11:05.636Z,101238.64
2018-09-04T23:13:34.817Z,101232.44
2018-09-04T23:16:04.100Z,101237.25
2018-09-04T23:18:33.308Z,101234.52
2018-09-04T23:21:02.509Z,101230.36
2018-09-04T23:23:31.783Z,101231.38
2018-09-04T23:26:00.996Z,101232.86
2018-09-04T23:28:30.684Z,101230.05
2018-09-04T23:31:00.251Z,101229.36
2018-09-04T23:33:29.934Z,101232.34
2018-09-04T23:35:59.131Z,101236.95
2018-09-04T23:38:28.291Z,101235.54
2018-09-04T23:40:57.612Z,101232.05
2018-09-04T23:43:26.829Z,101241.89
2018-09-04T23:45:56.015Z,101231.66
2018-09-04T23:48:25.240Z,101231.75
2018-09-04T23:50:54.539Z,101236.87
2018-09-04T23:53:23.679Z,101238.65
2018-09-04T23:55:52.859Z,101240.42
2018-09-04T23:58:22.625Z,101233.67
